Time;durP1;ratioP1;P1;durP2;ratioP2;P2;SDS_P1;SDS_P2;PMS_P1;PMS_P2;Temp;Humidity;BMP_temperature;BMP_pressure;BME280_temperature;BME280_humidity;BME280_pressure;Samples;Min_cycle;Max_cycle;Signal;HPM_P1;HPM_P2
2024/02/22 00:02:05;;;;;;;11.65;7.68;;;;;;;13.69;66.83;99879.03;4964019;28;96717;-88
2024/02/22 00:04:31;;;;;;;13.70;7.70;;;;;;;13.71;66.89;99877.25;4967211;28;96913;-88
2024/02/22 00:06:57;;;;;;;14.00;8.38;;;;;;;13.73;67.02;99873.75;4930853;28;99718;-88
2024/02/22 00:09:23;;;;;;;13.43;9.60;;;;;;;13.73;66.92;99866.75;4952747;28;97916;-89
2024/02/22 00:11:48;;;;;;;13.35;9.18;;;;;;;13.74;66.90;99865.84;4953619;28;96667;-89
2024/02/22 00:14:14;;;;;;;13.00;9.05;;;;;;;13.76;66.58;99857.97;4952441;28;96841;-90
2024/02/22 00:16:40;;;;;;;14.23;8.25;;;;;;;13.76;67.00;99858.84;4926864;28;99431;-89
2024/02/22 00:19:05;;;;;;;13.02;8.63;;;;;;;13.78;67.01;99845.69;4950948;28;100071;-89
2024/02/22 00:21:31;;;;;;;13.15;7.80;;;;;;;13.81;67.04;99851.75;4951626;28;96791;-89
2024/02/22 00:23:56;;;;;;;11.63;7.28;;;;;;;13.82;67.05;99842.16;4948573;28;96876;-88
2024/02/22 00:26:22;;;;;;;14.10;7.72;;;;;;;13.84;66.95;99845.59;4950057;28;100571;-88
2024/02/22 00:28:48;;;;;;;14.60;9.43;;;;;;;13.83;67.09;99850.00;4977555;28;100780;-88
2024/02/22 00:31:14;;;;;;;13.60;8.57;;;;;;;13.83;66.98;99847.38;4948711;28;96775;-89
2024/02/22 00:33:39;;;;;;;13.90;8.25;;;;;;;13.84;67.13;99848.22;4964741;28;96886;-89
2024/02/22 00:36:05;;;;;;;13.13;8.68;;;;;;;13.86;67.04;99834.19;4963986;28;100822;-89
2024/02/22 00:38:39;;;;;;;12.30;7.45;;;;;;;13.86;67.01;99828.94;4949402;28;99662;-89
2024/02/22 00:41:04;;;;;;;13.23;7.90;;;;;;;13.89;66.79;99833.28;4962980;28;96855;-89
2024/02/22 00:43:30;;;;;;;12.23;7.55;;;;;;;13.89;66.85;99825.41;4935676;28;97319;-89
2024/02/22 00:45:55;;;;;;;13.32;8.35;;;;;;;13.90;66.89;99835.88;4951095;28;100627;-89
2024/02/22 00:48:23;;;;;;;15.40;8.00;;;;;;;13.90;67.08;99825.41;4951137;28;99940;-88
2024/02/22 00:50:49;;;;;;;13.73;8.30;;;;;;;13.92;66.97;99822.75;4956563;28;96707;-89
2024/02/22 00:53:15;;;;;;;10.85;6.65;;;;;;;13.92;67.03;99820.13;4955807;28;97032;-89
2024/02/22 00:55:41;;;;;;;11.68;7.25;;;;;;;13.92;67.11;99812.28;4939251;28;100956;-89
2024/02/22 00:58:12;;;;;;;10.98;7.75;;;;;;;13.92;66.81;99812.28;4943496;28;99892;-89
2024/02/22 01:00:37;;;;;;;11.45;7.10;;;;;;;13.94;66.90;99806.97;4951400;28;96851;-89
2024/02/22 01:03:04;;;;;;;11.98;6.55;;;;;;;13.94;67.17;99801.72;4951294;28;96694;-89
2024/02/22 01:05:30;;;;;;;11.98;7.63;;;;;;;13.93;67.04;99800.03;4966320;28;99625;-88
2024/02/22 01:07:56;;;;;;;10.93;6.25;;;;;;;13.93;66.87;99793.00;4943976;28;100671;-90
2024/02/22 01:10:21;;;;;;;10.55;6.60;;;;;;;13.95;66.92;99790.38;4935080;28;96809;-89
2024/02/22 01:12:47;;;;;;;10.43;6.15;;;;;;;13.96;67.02;99792.97;4944792;28;96817;-89
2024/02/22 01:15:13;;;;;;;10.00;5.90;;;;;;;13.97;67.26;99785.94;4943494;28;97995;-89
2024/02/22 01:17:38;;;;;;;9.65;6.38;;;;;;;13.95;66.89;99791.22;4957353;28;100547;-89
2024/02/22 01:20:04;;;;;;;10.10;5.75;;;;;;;13.95;66.93;99795.59;4953552;28;96764;-88
2024/02/22 01:22:30;;;;;;;9.95;6.40;;;;;;;13.95;67.14;99788.59;4967887;28;96923;-89
2024/02/22 01:24:55;;;;;;;12.38;7.10;;;;;;;13.97;67.07;99783.34;4953321;28;101337;-89
2024/02/22 01:27:21;;;;;;;10.65;7.05;;;;;;;13.97;67.08;99776.31;4951873;28;101454;-88
2024/02/22 01:29:48;;;;;;;11.57;6.75;;;;;;;13.98;67.04;99770.19;4938001;28;96773;-89
2024/02/22 01:32:14;;;;;;;11.02;7.05;;;;;;;14.00;67.04;99775.41;4956388;28;96844;-89
2024/02/22 01:34:40;;;;;;;10.27;6.65;;;;;;;14.00;67.06;99771.03;4958875;28;100539;-89
2024/02/22 01:37:07;;;;;;;13.38;6.55;;;;;;;14.01;67.12;99769.25;4937164;28;100360;-89
2024/02/22 01:39:34;;;;;;;11.98;6.85;;;;;;;14.01;66.87;99771.88;4949456;28;96791;-89
2024/02/22 01:41:59;;;;;;;11.65;7.40;;;;;;;14.02;67.03;99765.75;4952411;28;96806;-90
2024/02/22 01:44:28;;;;;;;13.13;6.57;;;;;;;14.02;66.86;99758.75;4953618;28;100705;-89
2024/02/22 01:47:07;;;;;;;10.88;6.15;;;;;;;13.99;67.34;99755.31;4953522;28;101029;-89
2024/02/22 01:49:35;;;;;;;13.75;7.57;;;;;;;14.03;67.10;99757.00;4970411;28;96830;-89
2024/02/22 01:52:02;;;;;;;12.45;6.25;;;;;;;14.03;67.03;99752.63;4934572;28;96826;-89
2024/02/22 01:54:28;;;;;;;13.07;6.85;;;;;;;14.05;67.16;99749.97;4983342;28;99983;-89
2024/02/22 01:56:57;;;;;;;12.30;5.93;;;;;;;14.05;67.21;99753.47;4944799;28;97571;-89
2024/02/22 01:59:23;;;;;;;11.80;5.88;;;;;;;14.05;67.21;99739.50;4954113;28;96841;-89
2024/02/22 02:01:52;;;;;;;10.70;5.65;;;;;;;14.04;66.93;99738.59;4953347;28;96920;-90
2024/02/22 02:04:18;;;;;;;9.80;5.40;;;;;;;14.05;67.10;99731.63;4969953;28;100667;-88
2024/02/22 02:06:45;;;;;;;10.00;4.68;;;;;;;14.06;66.99;99728.09;4955489;28;100370;-88
2024/02/22 02:09:15;;;;;;;12.35;5.07;;;;;;;14.06;67.05;99731.59;4964604;28;96789;-88
2024/02/22 02:11:47;;;;;;;14.70;5.38;;;;;;;14.06;67.25;99731.59;4945089;28;96803;-89
2024/02/22 02:14:13;;;;;;;15.57;5.72;;;;;;;14.05;67.08;99716.75;4953848;28;100352;-89
2024/02/22 02:16:38;;;;;;;24.17;7.47;;;;;;;14.06;67.37;99715.88;4937391;28;99870;-89
2024/02/22 02:19:08;;;;;;;27.10;7.97;;;;;;;14.08;67.24;99713.19;4952793;28;96792;-89
2024/02/22 02:21:49;;;;;;;31.45;9.43;;;;;;;14.08;67.03;99718.44;4954179;28;96808;-89
2024/02/22 02:24:34;;;;;;;31.70;8.93;;;;;;;14.11;67.14;99725.41;4954026;28;98213;-89
2024/02/22 02:26:59;;;;;;;37.70;10.00;;;;;;;14.11;67.15;99713.13;4936889;28;100507;-90
2024/02/22 02:29:25;;;;;;;37.10;9.80;;;;;;;14.13;67.06;99716.59;4971191;28;96754;-88
2024/02/22 02:31:50;;;;;;;34.95;9.38;;;;;;;14.15;67.10;99708.69;4953807;28;96782;-88
2024/02/22 02:34:16;;;;;;;49.47;10.85;;;;;;;14.16;67.24;99711.28;4968783;28;99612;-89
2024/02/22 02:36:44;;;;;;;40.60;10.07;;;;;;;14.17;67.12;99706.91;4954442;28;99384;-88
2024/02/22 02:39:10;;;;;;;41.78;9.25;;;;;;;14.18;67.03;99703.41;4955796;28;96771;-89
2024/02/22 02:41:36;;;;;;;39.65;9.93;;;;;;;14.17;66.96;99696.41;4949484;28;96928;-89
2024/02/22 02:44:01;;;;;;;40.17;9.20;;;;;;;14.18;67.11;99703.41;4952946;28;100874;-89
2024/02/22 02:46:27;;;;;;;38.33;8.55;;;;;;;14.19;66.88;99708.63;4953060;28;100258;-89
2024/02/22 02:48:52;;;;;;;40.58;8.88;;;;;;;14.22;67.06;99705.06;4954287;28;96747;-89
2024/02/22 02:51:18;;;;;;;53.47;10.20;;;;;;;14.22;66.85;99705.06;4937293;28;96812;-89
2024/02/22 02:53:46;;;;;;;37.92;8.23;;;;;;;14.23;66.82;99698.91;4956474;28;100027;-89
2024/02/22 02:56:14;;;;;;;39.72;9.25;;;;;;;14.22;66.79;99695.41;4954846;28;100497;-89
2024/02/22 02:58:40;;;;;;;43.22;9.25;;;;;;;14.23;66.73;99694.53;4956522;28;96774;-89
2024/02/22 03:01:06;;;;;;;43.17;8.30;;;;;;;14.23;66.83;99699.78;4935839;28;97117;-89
2024/02/22 03:03:32;;;;;;;33.70;8.18;;;;;;;14.24;66.86;99690.13;4937066;28;101470;-89
2024/02/22 03:05:57;;;;;;;43.80;9.30;;;;;;;14.23;66.85;99691.91;4953067;28;99791;-89
2024/02/22 03:08:23;;;;;;;35.90;7.80;;;;;;;14.23;66.74;99691.06;4961775;28;96842;-89
2024/02/22 03:10:48;;;;;;;36.00;7.70;;;;;;;14.23;66.88;99678.78;4970214;28;96904;-89
2024/02/22 03:13:14;;;;;;;50.97;8.88;;;;;;;14.24;66.79;99683.16;4953917;28;100312;-89
2024/02/22 03:15:39;;;;;;;34.80;6.72;;;;;;;14.25;66.55;99681.38;4952818;28;100117;-89
2024/02/22 03:18:06;;;;;;;38.20;7.72;;;;;;;14.24;66.62;99682.28;4953428;28;96899;-89
2024/02/22 03:20:32;;;;;;;36.40;9.32;;;;;;;14.23;66.59;99684.03;4954918;28;97030;-88
2024/02/22 03:22:58;;;;;;;44.45;6.97;;;;;;;14.20;66.53;99684.09;4954116;28;100856;-89
2024/02/22 03:25:24;;;;;;;41.35;7.20;;;;;;;14.20;66.43;99678.00;4938158;28;99901;-89
2024/02/22 03:27:50;;;;;;;35.80;6.75;;;;;;;14.19;66.37;99678.88;4937160;28;96774;-88
2024/02/22 03:30:16;;;;;;;34.92;8.57;;;;;;;14.15;66.57;99667.59;4953110;28;97063;-88
2024/02/22 03:32:44;;;;;;;35.97;7.10;;;;;;;14.14;66.42;99658.00;4952578;28;100416;-88
2024/02/22 03:35:12;;;;;;;37.67;7.47;;;;;;;14.12;66.14;99659.81;4955373;28;99835;-89
2024/02/22 03:37:38;;;;;;;32.83;6.03;;;;;;;14.09;66.40;99658.09;4937883;28;96774;-89
2024/02/22 03:40:08;;;;;;;37.88;6.93;;;;;;;14.09;66.49;99654.63;4970068;28;96840;-89
2024/02/22 03:42:38;;;;;;;35.05;7.97;;;;;;;14.07;66.19;99652.03;4952300;28;100765;-88
2024/02/22 03:45:05;;;;;;;37.92;8.20;;;;;;;14.08;66.44;99650.25;4948856;28;100070;-89
2024/02/22 03:47:30;;;;;;;32.03;7.47;;;;;;;14.08;66.46;99648.53;4937777;28;97791;-88
2024/02/22 03:49:56;;;;;;;30.70;6.47;;;;;;;14.07;66.20;99643.31;4937340;28;96976;-89
2024/02/22 03:52:23;;;;;;;39.38;6.97;;;;;;;14.08;66.12;99645.91;4953024;28;100437;-89
2024/02/22 03:54:49;;;;;;;27.73;6.82;;;;;;;14.08;66.28;99642.38;4936174;28;100108;-89
2024/02/22 03:57:15;;;;;;;46.47;10.32;;;;;;;14.06;66.37;99638.94;4934541;28;96826;-88
2024/02/22 03:59:41;;;;;;;42.00;9.68;;;;;;;14.06;66.25;99636.31;4952125;28;96797;-89
2024/02/22 04:02:07;;;;;;;39.42;8.18;;;;;;;14.05;66.36;99624.97;4937320;28;100674;-88
2024/02/22 04:04:33;;;;;;;39.90;7.95;;;;;;;14.05;66.35;99630.22;4965283;28;97540;-89
2024/02/22 04:07:08;;;;;;;40.55;9.48;;;;;;;14.05;66.32;99617.13;4949437;28;96966;-89
2024/02/22 04:09:34;;;;;;;35.22;9.68;;;;;;;14.05;66.31;99609.25;4948949;28;96795;-89
2024/02/22 04:12:00;;;;;;;34.92;7.95;;;;;;;14.06;66.50;99615.34;4951996;28;99990;-89
2024/02/22 04:14:25;;;;;;;35.83;8.50;;;;;;;14.06;66.44;99610.09;4963721;28;100051;-89
2024/02/22 04:16:59;;;;;;;38.53;9.40;;;;;;;14.07;66.07;99603.97;4957867;28;96807;-89
2024/02/22 04:19:24;;;;;;;35.42;8.38;;;;;;;14.04;66.15;99602.25;4952463;28;96726;-89
2024/02/22 04:21:50;;;;;;;45.08;9.05;;;;;;;14.05;66.42;99600.53;4952503;28;100172;-89
2024/02/22 04:24:18;;;;;;;37.95;9.23;;;;;;;14.05;66.14;99595.28;4935644;28;100056;-90
2024/02/22 04:26:50;;;;;;;27.98;8.35;;;;;;;14.04;66.30;99585.69;4968854;28;96863;-89
2024/02/22 04:29:16;;;;;;;35.35;7.57;;;;;;;14.05;66.16;99580.41;4935458;28;96930;-89
2024/02/22 04:31:44;;;;;;;35.58;7.68;;;;;;;14.04;66.24;99567.31;4921052;28;99879;-89
2024/02/22 04:34:10;;;;;;;35.95;9.00;;;;;;;14.04;66.01;99565.56;4952004;28;100480;-89
2024/02/22 04:36:42;;;;;;;32.13;8.90;;;;;;;14.03;66.04;99569.09;4941496;28;96799;-89
2024/02/22 04:39:15;;;;;;;31.65;8.05;;;;;;;14.02;66.13;99577.00;4955052;28;96810;-89
2024/02/22 04:41:40;;;;;;;33.22;8.00;;;;;;;14.00;66.21;99577.03;4968770;28;97694;-89
2024/02/22 04:44:07;;;;;;;31.45;7.40;;;;;;;14.01;66.11;99575.25;4939578;28;100411;-89
2024/02/22 04:46:33;;;;;;;31.95;8.32;;;;;;;13.99;65.91;99567.44;4951440;28;96805;-89
2024/02/22 04:49:01;;;;;;;37.00;8.18;;;;;;;13.99;66.07;99572.69;4936473;28;96852;-89
2024/02/22 04:51:29;;;;;;;30.77;7.25;;;;;;;13.98;65.99;99567.47;4951975;28;100356;-89
2024/02/22 04:53:55;;;;;;;38.03;7.70;;;;;;;13.97;66.06;99561.34;4951527;28;99899;-89
2024/02/22 04:56:20;;;;;;;38.40;6.70;;;;;;;13.96;65.93;99559.66;4952207;28;96889;-88
2024/02/22 04:58:46;;;;;;;39.13;8.68;;;;;;;13.94;65.94;99561.44;4952107;28;96999;-88
2024/02/22 05:01:11;;;;;;;36.70;7.47;;;;;;;13.95;65.82;99557.06;4951659;28;97669;-89
2024/02/22 05:03:39;;;;;;;37.50;8.05;;;;;;;13.92;66.00;99555.38;4938183;28;100192;-88
2024/02/22 05:06:05;;;;;;;29.88;6.43;;;;;;;13.90;65.93;99552.78;4954603;28;96880;-88
2024/02/22 05:08:30;;;;;;;34.88;8.13;;;;;;;13.90;65.88;99551.91;4953158;28;96889;-89
2024/02/22 05:10:56;;;;;;;34.92;6.80;;;;;;;13.88;65.85;99546.69;4951556;28;100385;-89
2024/02/22 05:13:21;;;;;;;26.73;5.80;;;;;;;13.86;65.73;99547.63;4970390;28;100105;-89
2024/02/22 05:15:47;;;;;;;32.50;6.72;;;;;;;13.84;65.82;99549.41;4952768;28;96812;-89
2024/02/22 05:18:13;;;;;;;30.88;5.68;;;;;;;13.84;65.84;99542.41;4965109;28;96783;-88
2024/02/22 05:20:38;;;;;;;28.08;6.35;;;;;;;13.82;65.83;99549.44;4950974;28;100501;-89
2024/02/22 05:23:07;;;;;;;23.65;5.53;;;;;;;13.83;65.72;99545.06;4955425;28;100175;-89
2024/02/22 05:25:33;;;;;;;;;;;;;;;13.80;66.00;99540.75;4939847;28;96715;-89
2024/02/22 05:27:59;;;;;;;28.15;5.30;;;;;;;13.83;65.55;99538.09;4971260;28;96885;-89
2024/02/22 05:30:25;;;;;;;32.85;6.47;;;;;;;13.83;65.73;99530.22;4960268;28;100498;-89
2024/02/22 05:32:50;;;;;;;33.10;4.95;;;;;;;13.80;65.57;99514.56;4954957;28;100517;-89
2024/02/22 05:35:16;;;;;;;27.25;5.78;;;;;;;13.79;65.89;99515.44;4940247;28;96727;-89
2024/02/22 05:37:44;;;;;;;28.27;5.20;;;;;;;13.77;65.53;99516.38;4937789;28;96851;-89
2024/02/22 05:40:10;;;;;;;30.33;5.75;;;;;;;13.75;65.31;99510.31;4954559;28;100371;-88
2024/02/22 05:42:36;;;;;;;27.67;6.07;;;;;;;13.73;65.34;99502.47;4926096;28;100524;-89
2024/02/22 05:45:06;;;;;;;34.58;6.55;;;;;;;13.69;65.19;99508.69;4962733;28;96938;-89
2024/02/22 05:47:32;;;;;;;30.08;5.22;;;;;;;13.68;65.50;99512.19;4939610;28;96845;-89
2024/02/22 05:49:57;;;;;;;28.40;5.00;;;;;;;13.67;65.49;99513.06;4954969;28;99256;-89
2024/02/22 05:52:23;;;;;;;24.45;4.75;;;;;;;13.63;65.29;99514.91;4954603;28;100237;-89
2024/02/22 05:54:48;;;;;;;27.83;5.78;;;;;;;13.62;65.27;99512.34;4940693;28;96665;-88
2024/02/22 05:57:14;;;;;;;22.08;5.13;;;;;;;13.60;65.29;99521.97;4954416;28;96916;-88
2024/02/22 05:59:39;;;;;;;29.17;5.35;;;;;;;13.59;65.32;99517.63;4950672;28;100638;-89
2024/02/22 06:02:05;;;;;;;29.05;5.30;;;;;;;13.58;65.18;99510.66;4953127;28;97223;-89
2024/02/22 06:04:30;;;;;;;34.08;5.53;;;;;;;13.58;65.39;99508.03;4960526;28;96636;-89
2024/02/22 06:06:56;;;;;;;30.38;4.53;;;;;;;13.59;65.21;99499.31;4959336;28;96820;-89
2024/02/22 06:09:21;;;;;;;23.33;5.18;;;;;;;13.57;65.14;99490.63;4972329;28;100450;-88
2024/02/22 06:11:47;;;;;;;22.40;4.15;;;;;;;13.55;65.18;99487.13;4942308;28;99694;-89
2024/02/22 06:14:12;;;;;;;28.02;5.68;;;;;;;13.52;65.16;99483.69;4954138;28;96793;-88
2024/02/22 06:16:38;;;;;;;24.38;4.63;;;;;;;13.51;65.29;99478.47;4935062;28;96928;-89
2024/02/22 06:19:06;;;;;;;23.88;3.92;;;;;;;13.48;65.33;99474.19;4951981;28;97601;-88
2024/02/22 06:21:31;;;;;;;27.83;4.70;;;;;;;13.47;65.25;99477.69;4950180;28;100298;-86
2024/02/22 06:24:00;;;;;;;25.85;4.55;;;;;;;13.47;65.39;99482.06;4937404;28;96790;-86
2024/02/22 06:26:31;;;;;;;19.77;4.57;;;;;;;13.45;65.30;99468.16;4949910;28;96886;-87
2024/02/22 06:28:57;;;;;;;24.08;4.90;;;;;;;13.46;65.41;99469.88;4950405;28;97637;-86
2024/02/22 06:31:22;;;;;;;23.58;5.32;;;;;;;13.46;65.26;99470.75;4956273;28;100177;-86
2024/02/22 06:33:48;;;;;;;24.33;3.97;;;;;;;13.48;65.46;99457.63;4951120;28;96811;-87
2024/02/22 06:36:13;;;;;;;30.30;5.75;;;;;;;13.47;65.25;99446.25;4962566;28;96918;-87
2024/02/22 06:38:45;;;;;;;25.30;4.15;;;;;;;13.46;65.07;99443.69;4954953;28;97859;-86
2024/02/22 06:41:15;;;;;;;22.08;5.00;;;;;;;13.44;65.20;99437.59;4969537;28;100287;-87
2024/02/22 06:43:44;;;;;;;23.73;4.35;;;;;;;13.40;65.17;99435.94;4931949;28;96976;-86
2024/02/22 06:46:11;;;;;;;21.23;4.90;;;;;;;13.39;65.11;99426.38;4949005;28;96892;-86
2024/02/22 06:48:36;;;;;;;21.95;5.05;;;;;;;13.36;65.12;99411.59;4949899;28;98029;-87
2024/02/22 06:51:07;;;;;;;25.63;4.30;;;;;;;13.35;65.05;99424.72;4950103;28;100417;-87
2024/02/22 06:53:32;;;;;;;29.25;5.53;;;;;;;13.33;65.01;99416.88;4950282;28;96846;-87
2024/02/22 06:55:58;;;;;;;27.85;4.57;;;;;;;13.30;65.07;99407.31;4950217;28;97055;-87
2024/02/22 06:58:23;;;;;;;21.48;5.15;;;;;;;13.26;65.05;99410.91;4949289;28;97530;-87
2024/02/22 07:00:49;;;;;;;32.97;6.50;;;;;;;13.23;64.95;99404.88;4944434;28;99620;-86
2024/02/22 07:03:14;;;;;;;25.00;4.97;;;;;;;13.17;64.77;99400.59;4950176;28;97611;-85
2024/02/22 07:05:39;;;;;;;26.05;5.43;;;;;;;13.13;65.08;99394.56;4948681;28;96950;-86
2024/02/22 07:08:05;;;;;;;21.45;4.75;;;;;;;13.13;65.26;99378.00;4957304;28;97667;-89
2024/02/22 07:10:31;;;;;;;25.17;5.25;;;;;;;13.12;65.38;99371.06;4949485;28;96835;-87
2024/02/22 07:12:56;;;;;;;31.27;7.05;;;;;;;13.10;65.20;99372.81;4934368;28;96751;-88
2024/02/22 07:15:22;;;;;;;29.63;5.78;;;;;;;13.09;65.31;99366.75;4936810;28;96899;-89
2024/02/22 07:17:48;;;;;;;23.80;5.22;;;;;;;13.10;65.39;99373.72;4942275;28;100521;-88
2024/02/22 07:20:14;;;;;;;19.98;5.05;;;;;;;13.11;65.40;99377.19;4951361;28;99859;-86
2024/02/22 07:22:44;;;;;;;21.23;4.68;;;;;;;13.11;65.30;99364.94;4961234;28;96954;-87
2024/02/22 07:25:13;;;;;;;26.05;5.78;;;;;;;13.11;65.39;99372.81;4956218;28;96828;-88
2024/02/22 07:27:39;;;;;;;25.80;5.13;;;;;;;13.11;65.37;99364.09;4932871;28;100233;-88
2024/02/22 07:30:07;;;;;;;22.13;5.53;;;;;;;13.09;65.24;99358.88;4951115;28;100227;-87
2024/02/22 07:32:33;;;;;;;24.05;6.18;;;;;;;13.09;65.37;99364.13;4950696;28;96708;-87
2024/02/22 07:35:00;;;;;;;27.23;5.28;;;;;;;13.09;65.63;99361.50;4972992;28;96992;-87
2024/02/22 07:37:25;;;;;;;22.88;6.35;;;;;;;13.12;65.56;99353.59;4950331;28;100682;-87
2024/02/22 07:39:53;;;;;;;31.10;5.35;;;;;;;13.12;65.67;99348.38;4947680;28;98716;-87
2024/02/22 07:42:19;;;;;;;30.60;6.55;;;;;;;13.15;65.56;99350.03;4964648;28;97194;-87
2024/02/22 07:44:45;;;;;;;27.10;7.05;;;;;;;13.16;65.51;99343.91;4948651;28;96937;-87
2024/02/22 07:47:11;;;;;;;25.85;7.30;;;;;;;13.18;65.64;99341.28;4934855;28;100165;-87
2024/02/22 07:49:37;;;;;;;27.65;7.72;;;;;;;13.17;65.62;99322.06;4951209;28;100791;-87
2024/02/22 07:52:06;;;;;;;27.30;8.70;;;;;;;13.19;65.68;99324.66;4952183;28;96809;-87
2024/02/22 07:54:32;;;;;;;26.75;8.95;;;;;;;13.20;65.60;99326.38;4945484;28;97087;-87
2024/02/22 07:56:57;;;;;;;27.58;7.57;;;;;;;13.21;65.67;99315.00;4954083;28;99334;-86
2024/02/22 07:59:26;;;;;;;30.50;9.90;;;;;;;13.24;65.63;99307.09;4964319;28;100136;-86
2024/02/22 08:01:52;;;;;;;33.10;9.63;;;;;;;13.25;65.89;99308.81;4951372;28;96838;-86
2024/02/22 08:04:19;;;;;;;25.20;9.32;;;;;;;13.27;65.83;99301.78;4950378;28;97011;-87
2024/02/22 08:06:45;;;;;;;29.13;10.85;;;;;;;13.30;65.82;99296.47;4951951;28;99697;-87
2024/02/22 08:09:12;;;;;;;27.38;10.95;;;;;;;13.33;65.88;99285.94;4947155;28;99694;-87
2024/02/22 08:11:37;;;;;;;26.17;9.55;;;;;;;13.37;65.92;99285.00;4958275;28;96839;-87
2024/02/22 08:14:03;;;;;;;34.40;11.80;;;;;;;13.40;66.13;99282.28;4951919;28;96955;-86
2024/02/22 08:16:29;;;;;;;28.55;10.90;;;;;;;13.44;65.75;99275.22;4950526;28;97539;-87
2024/02/22 08:18:57;;;;;;;33.85;11.15;;;;;;;13.44;65.97;99264.72;4963463;28;99189;-86
2024/02/22 08:21:23;;;;;;;25.95;10.38;;;;;;;13.50;66.12;99262.84;4950481;28;96824;-87
2024/02/22 08:23:55;;;;;;;25.85;10.75;;;;;;;13.55;66.26;99252.25;4939032;28;97079;-87
2024/02/22 08:26:21;;;;;;;23.83;8.68;;;;;;;13.58;66.03;99248.69;4971442;28;97858;-86
2024/02/22 08:28:47;;;;;;;25.48;8.73;;;;;;;13.63;66.16;99263.38;4948571;28;100324;-87
2024/02/22 08:31:13;;;;;;;19.60;8.05;;;;;;;13.69;66.08;99247.53;4946787;28;96859;-86
2024/02/22 08:33:38;;;;;;;18.40;8.20;;;;;;;13.75;66.22;99238.63;4935853;28;97048;-86
2024/02/22 08:36:04;;;;;;;18.77;7.55;;;;;;;13.78;66.00;99227.19;4947933;28;99697;-86
2024/02/22 08:38:30;;;;;;;17.35;7.45;;;;;;;13.81;65.80;99233.22;4946199;28;99756;-86
2024/02/22 08:40:56;;;;;;;16.38;7.65;;;;;;;13.86;66.05;99218.25;4941057;28;96961;-87
2024/02/22 08:43:21;;;;;;;16.75;6.95;;;;;;;13.91;66.10;99218.13;4954580;28;96963;-87
2024/02/22 08:45:48;;;;;;;17.45;6.30;;;;;;;13.95;65.68;99222.38;4941705;28;100356;-87
2024/02/22 08:48:14;;;;;;;18.77;7.30;;;;;;;13.96;65.55;99218.88;4929316;28;100666;-86
2024/02/22 08:50:41;;;;;;;15.63;7.10;;;;;;;13.98;65.28;99205.72;4961242;28;96851;-87
2024/02/22 08:53:06;;;;;;;16.60;6.82;;;;;;;13.98;65.39;99193.47;4947666;28;96928;-88
2024/02/22 08:55:32;;;;;;;12.70;5.50;;;;;;;14.00;65.64;99172.47;4953640;28;101636;-87
2024/02/22 08:57:58;;;;;;;15.75;6.18;;;;;;;14.03;65.39;99161.91;4947130;28;99859;-87
2024/02/22 09:00:23;;;;;;;12.18;6.03;;;;;;;14.04;65.32;99156.56;4951357;28;96824;-87
2024/02/22 09:02:51;;;;;;;12.45;6.05;;;;;;;14.05;65.38;99158.31;4947935;28;96868;-86
2024/02/22 09:05:16;;;;;;;12.07;5.57;;;;;;;14.06;65.36;99157.41;4944104;28;100562;-86
2024/02/22 09:07:47;;;;;;;11.45;5.18;;;;;;;14.08;65.17;99145.13;4934886;28;100184;-86
2024/02/22 09:10:15;;;;;;;12.32;4.97;;;;;;;14.12;65.35;99143.25;4948574;28;96764;-86
2024/02/22 09:12:43;;;;;;;10.02;4.30;;;;;;;14.16;65.04;99139.66;4936267;28;96820;-86
2024/02/22 09:15:09;;;;;;;8.88;4.20;;;;;;;14.20;65.11;99137.78;4945126;28;100535;-86
2024/02/22 09:17:35;;;;;;;10.32;5.15;;;;;;;14.25;65.26;99128.03;4948483;28;100296;-86
2024/02/22 09:20:01;;;;;;;10.95;4.60;;;;;;;14.30;65.21;99120.03;4946630;28;96825;-86
2024/02/22 09:22:26;;;;;;;10.63;4.90;;;;;;;14.34;65.08;99124.28;4943069;28;96924;-86
2024/02/22 09:24:52;;;;;;;7.65;3.80;;;;;;;14.41;65.08;99125.81;4927994;28;100238;-86
2024/02/22 09:27:17;;;;;;;11.65;5.10;;;;;;;14.44;64.83;99108.19;4926674;28;100346;-86
2024/02/22 09:29:43;;;;;;;9.02;5.18;;;;;;;14.52;64.97;99093.97;4945203;28;97716;-85
2024/02/22 09:32:09;;;;;;;9.23;4.65;;;;;;;14.56;64.86;99091.22;4945576;28;96928;-86
2024/02/22 09:34:38;;;;;;;9.38;5.05;;;;;;;14.59;64.56;99072.78;4931424;28;100702;-86
2024/02/22 09:37:05;;;;;;;8.23;3.80;;;;;;;14.62;64.51;99062.19;4927759;28;100302;-86
2024/02/22 09:39:35;;;;;;;7.75;4.20;;;;;;;14.67;64.69;99051.56;4946016;28;96747;-86
2024/02/22 09:42:01;;;;;;;11.35;5.85;;;;;;;14.76;64.78;99034.63;4927165;28;96904;-86
2024/02/22 09:44:28;;;;;;;8.82;4.70;;;;;;;14.84;64.24;99024.72;4935470;28;100392;-86
2024/02/22 09:46:54;;;;;;;11.95;5.68;;;;;;;14.89;64.25;99012.31;4940546;28;97599;-86
2024/02/22 09:49:23;;;;;;;8.02;5.63;;;;;;;14.95;64.10;98990.25;4962552;28;96951;-86
2024/02/22 09:51:50;;;;;;;9.27;5.10;;;;;;;15.00;64.12;98989.16;4946880;28;96919;-87
2024/02/22 09:54:17;;;;;;;10.52;4.90;;;;;;;15.02;63.83;98978.59;4947295;28;100466;-86
2024/02/22 09:56:47;;;;;;;7.13;4.35;;;;;;;15.04;63.64;98984.66;4952204;28;97435;-86
2024/02/22 09:59:13;;;;;;;8.00;5.15;;;;;;;15.06;63.61;98993.31;4928507;28;96867;-86
2024/02/22 10:01:39;;;;;;;8.57;5.22;;;;;;;15.09;63.58;99000.25;4949135;28;96959;-87
2024/02/22 10:04:23;;;;;;;8.88;5.03;;;;;;;15.14;63.80;99003.59;4926242;28;100948;-87
2024/02/22 10:06:49;;;;;;;6.60;4.82;;;;;;;15.25;63.85;99005.81;4940078;28;100145;-86
2024/02/22 10:09:16;;;;;;;9.18;4.38;;;;;;;15.29;63.38;98989.03;4947938;28;96834;-87
2024/02/22 10:11:46;;;;;;;5.78;4.10;;;;;;;15.28;63.31;98977.69;4933036;28;97079;-86
2024/02/22 10:14:15;;;;;;;5.18;3.10;;;;;;;15.28;62.80;98963.69;4964591;28;100251;-86
2024/02/22 10:16:44;;;;;;;5.13;3.83;;;;;;;15.25;62.50;98958.53;4935315;28;100446;-86
2024/02/22 10:19:16;;;;;;;5.45;3.90;;;;;;;15.22;62.84;98972.63;4947964;28;96793;-86
2024/02/22 10:21:44;;;;;;;4.82;3.42;;;;;;;15.23;63.18;98959.44;4951745;28;96855;-86
2024/02/22 10:24:09;;;;;;;6.22;3.20;;;;;;;15.29;63.28;98953.09;4949622;28;100634;-86
2024/02/22 10:26:35;;;;;;;4.85;2.63;;;;;;;15.36;62.97;98970.34;4932396;28;99882;-85
2024/02/22 10:29:11;;;;;;;4.20;3.08;;;;;;;15.34;62.51;98964.31;4952573;28;96682;-86
2024/02/22 10:31:40;;;;;;;5.05;2.70;;;;;;;15.37;62.29;98952.84;4948978;28;96884;-85
2024/02/22 10:34:05;;;;;;;4.13;2.70;;;;;;;15.35;62.09;98931.03;4949122;28;99661;-87
2024/02/22 10:36:32;;;;;;;3.90;3.03;;;;;;;15.31;61.78;98921.53;4952549;28;100288;-86
2024/02/22 10:38:58;;;;;;;3.33;2.33;;;;;;;15.25;61.94;98917.38;4933197;28;97223;-86
2024/02/22 10:41:25;;;;;;;3.85;2.28;;;;;;;15.23;62.33;98906.91;4953481;28;96835;-86
2024/02/22 10:43:52;;;;;;;3.95;3.15;;;;;;;15.22;62.00;98904.34;4949873;28;100586;-86
2024/02/22 10:46:18;;;;;;;4.97;3.55;;;;;;;15.21;62.11;98884.28;4948392;28;100017;-87
2024/02/22 10:48:51;;;;;;;5.07;2.83;;;;;;;15.22;62.50;98878.09;4946394;28;96911;-86
2024/02/22 10:51:19;;;;;;;5.05;3.83;;;;;;;15.26;62.39;98874.44;4948021;28;96925;-87
2024/02/22 10:53:53;;;;;;;6.22;4.25;;;;;;;15.24;62.34;98876.28;4953443;28;100613;-87
2024/02/22 10:56:22;;;;;;;5.15;3.35;;;;;;;15.27;62.31;98878.78;4952426;28;97817;-86
2024/02/22 10:58:55;;;;;;;4.45;3.03;;;;;;;15.26;62.27;98863.94;4953727;28;96774;-87
2024/02/22 11:01:22;;;;;;;5.75;3.75;;;;;;;15.25;62.36;98867.47;4947879;28;96850;-86
2024/02/22 11:03:48;;;;;;;5.68;3.85;;;;;;;15.26;62.05;98852.56;4965044;28;97450;-86
2024/02/22 11:06:14;;;;;;;5.30;3.20;;;;;;;15.23;62.26;98841.25;4939072;28;97525;-86
2024/02/22 11:08:49;;;;;;;6.25;3.95;;;;;;;15.20;62.18;98832.66;4948036;28;96860;-86
2024/02/22 11:11:24;;;;;;;;;;;;;;;15.17;62.44;98827.53;4954334;28;96891;-86
2024/02/22 11:14:01;;;;;;;9.05;5.13;;;;;;;15.18;62.16;98823.97;4963466;28;97426;-87
2024/02/22 11:16:38;;;;;;;7.57;5.63;;;;;;;15.13;62.30;98829.38;4923898;28;100877;-86
2024/02/22 11:19:16;;;;;;;8.35;5.47;;;;;;;15.11;62.47;98819.88;4931364;28;96967;-86
2024/02/22 11:21:42;;;;;;;8.50;5.00;;;;;;;15.12;62.75;98811.94;4930280;28;97022;-86
2024/02/22 11:24:12;;;;;;;8.32;4.93;;;;;;;15.11;62.78;98791.84;4938088;28;100385;-86